sensor_id;sensor_type;location;lat;lon;timestamp;pressure;altitude;pressure_sealevel;temperature;humidity
28027;BME280;15344;52.342;-1.290;2023-12-07T00:01:35;99986.54;;;5.03;100.00
28027;BME280;15344;52.342;-1.290;2023-12-07T00:04:00;99987.24;;;5.33;100.00
28027;BME280;15344;52.342;-1.290;2023-12-07T00:06:26;99981.67;;;5.43;100.00
28027;BME280;15344;52.342;-1.290;2023-12-07T00:08:51;99980.52;;;5.77;100.00
28027;BME280;15344;52.342;-1.290;2023-12-07T00:11:16;99979.28;;;5.56;100.00
28027;BME280;15344;52.342;-1.290;2023-12-07T00:13:41;99980.40;;;5.83;100.00
28027;BME280;15344;52.342;-1.290;2023-12-07T00:16:07;99979.11;;;5.70;100.00
28027;BME280;15344;52.342;-1.290;2023-12-07T00:18:32;99977.60;;;5.39;100.00
28027;BME280;15344;52.342;-1.290;2023-12-07T00:20:58;99981.46;;;4.97;100.00
28027;BME280;15344;52.342;-1.290;2023-12-07T00:23:23;99980.04;;;6.32;100.00
28027;BME280;15344;52.342;-1.290;2023-12-07T00:25:48;99977.10;;;6.58;100.00
28027;BME280;15344;52.342;-1.290;2023-12-07T00:28:14;99978.33;;;6.67;100.00
28027;BME280;15344;52.342;-1.290;2023-12-07T00:30:39;99976.77;;;5.85;100.00
28027;BME280;15344;52.342;-1.290;2023-12-07T00:33:05;99972.27;;;6.69;100.00
28027;BME280;15344;52.342;-1.290;2023-12-07T00:35:30;99971.67;;;6.41;100.00
28027;BME280;15344;52.342;-1.290;2023-12-07T00:37:56;99966.60;;;6.93;100.00
28027;BME280;15344;52.342;-1.290;2023-12-07T00:40:21;99968.94;;;6.30;100.00
28027;BME280;15344;52.342;-1.290;2023-12-07T00:42:47;99961.37;;;6.33;100.00
28027;BME280;15344;52.342;-1.290;2023-12-07T00:45:13;99956.49;;;5.86;100.00
28027;BME280;15344;52.342;-1.290;2023-12-07T00:47:39;99952.45;;;6.78;100.00
28027;BME280;15344;52.342;-1.290;2023-12-07T00:50:05;99949.98;;;6.56;100.00
28027;BME280;15344;52.342;-1.290;2023-12-07T00:52:29;99952.37;;;5.52;100.00
28027;BME280;15344;52.342;-1.290;2023-12-07T00:54:55;99952.14;;;6.15;100.00
28027;BME280;15344;52.342;-1.290;2023-12-07T00:57:20;99941.27;;;6.41;100.00
28027;BME280;15344;52.342;-1.290;2023-12-07T00:59:46;99938.92;;;6.27;100.00
28027;BME280;15344;52.342;-1.290;2023-12-07T01:02:12;99938.87;;;5.83;100.00
28027;BME280;15344;52.342;-1.290;2023-12-07T01:04:37;99933.48;;;6.15;100.00
28027;BME280;15344;52.342;-1.290;2023-12-07T01:07:03;99936.34;;;6.91;100.00
28027;BME280;15344;52.342;-1.290;2023-12-07T01:09:28;99930.22;;;6.84;100.00
28027;BME280;15344;52.342;-1.290;2023-12-07T01:11:53;99932.76;;;6.67;100.00
28027;BME280;15344;52.342;-1.290;2023-12-07T01:14:19;99929.40;;;6.69;100.00
28027;BME280;15344;52.342;-1.290;2023-12-07T01:16:45;99927.01;;;6.51;100.00
28027;BME280;15344;52.342;-1.290;2023-12-07T01:19:10;99926.98;;;6.27;100.00
28027;BME280;15344;52.342;-1.290;2023-12-07T01:21:35;99924.87;;;6.55;100.00
28027;BME280;15344;52.342;-1.290;2023-12-07T01:24:00;99919.86;;;6.91;100.00
28027;BME280;15344;52.342;-1.290;2023-12-07T01:26:25;99920.57;;;6.41;100.00
28027;BME280;15344;52.342;-1.290;2023-12-07T01:28:51;99920.81;;;7.12;100.00
28027;BME280;15344;52.342;-1.290;2023-12-07T01:31:16;99917.70;;;6.34;100.00
28027;BME280;15344;52.342;-1.290;2023-12-07T01:33:42;99916.18;;;7.23;100.00
28027;BME280;15344;52.342;-1.290;2023-12-07T01:36:07;99907.15;;;6.49;100.00
28027;BME280;15344;52.342;-1.290;2023-12-07T01:38:33;99912.21;;;6.26;100.00
28027;BME280;15344;52.342;-1.290;2023-12-07T01:40:58;99902.79;;;6.47;100.00
28027;BME280;15344;52.342;-1.290;2023-12-07T01:43:24;99905.13;;;5.90;100.00
28027;BME280;15344;52.342;-1.290;2023-12-07T01:45:52;99904.13;;;5.73;100.00
28027;BME280;15344;52.342;-1.290;2023-12-07T01:48:14;99890.76;;;6.30;100.00
28027;BME280;15344;52.342;-1.290;2023-12-07T01:50:39;99883.70;;;6.22;100.00
28027;BME280;15344;52.342;-1.290;2023-12-07T01:53:05;99874.68;;;6.21;100.00
28027;BME280;15344;52.342;-1.290;2023-12-07T01:55:32;99870.27;;;6.34;100.00
28027;BME280;15344;52.342;-1.290;2023-12-07T01:57:55;99863.16;;;6.31;100.00
28027;BME280;15344;52.342;-1.290;2023-12-07T02:00:20;99865.24;;;5.91;100.00
28027;BME280;15344;52.342;-1.290;2023-12-07T02:02:47;99862.69;;;6.99;100.00
28027;BME280;15344;52.342;-1.290;2023-12-07T02:05:13;99852.86;;;6.22;100.00
28027;BME280;15344;52.342;-1.290;2023-12-07T02:07:37;99853.91;;;5.72;100.00
28027;BME280;15344;52.342;-1.290;2023-12-07T02:10:04;99849.23;;;6.44;100.00
28027;BME280;15344;52.342;-1.290;2023-12-07T02:12:29;99846.88;;;6.62;100.00
28027;BME280;15344;52.342;-1.290;2023-12-07T02:14:54;99847.86;;;6.64;100.00
28027;BME280;15344;52.342;-1.290;2023-12-07T02:17:24;99844.68;;;6.44;100.00
28027;BME280;15344;52.342;-1.290;2023-12-07T02:19:53;99845.89;;;6.13;100.00
28027;BME280;15344;52.342;-1.290;2023-12-07T02:22:16;99843.82;;;6.51;100.00
28027;BME280;15344;52.342;-1.290;2023-12-07T02:24:38;99838.49;;;6.31;100.00
28027;BME280;15344;52.342;-1.290;2023-12-07T02:27:01;99841.53;;;5.97;100.00
28027;BME280;15344;52.342;-1.290;2023-12-07T02:29:26;99835.70;;;6.06;100.00
28027;BME280;15344;52.342;-1.290;2023-12-07T02:31:53;99834.88;;;5.76;100.00
28027;BME280;15344;52.342;-1.290;2023-12-07T02:34:18;99829.20;;;7.02;100.00
28027;BME280;15344;52.342;-1.290;2023-12-07T02:36:44;99829.62;;;7.11;100.00
28027;BME280;15344;52.342;-1.290;2023-12-07T02:39:09;99823.35;;;6.86;100.00
28027;BME280;15344;52.342;-1.290;2023-12-07T02:41:35;99818.10;;;5.49;100.00
28027;BME280;15344;52.342;-1.290;2023-12-07T02:44:00;99813.05;;;6.56;100.00
28027;BME280;15344;52.342;-1.290;2023-12-07T02:46:26;99807.67;;;6.13;100.00
28027;BME280;15344;52.342;-1.290;2023-12-07T02:48:51;99806.32;;;6.51;100.00
28027;BME280;15344;52.342;-1.290;2023-12-07T02:51:16;99805.37;;;6.32;100.00
28027;BME280;15344;52.342;-1.290;2023-12-07T02:53:42;99794.75;;;7.19;100.00
28027;BME280;15344;52.342;-1.290;2023-12-07T02:56:08;99790.43;;;6.44;100.00
28027;BME280;15344;52.342;-1.290;2023-12-07T02:58:33;99788.13;;;5.55;100.00
28027;BME280;15344;52.342;-1.290;2023-12-07T03:00:58;99786.78;;;6.62;100.00
28027;BME280;15344;52.342;-1.290;2023-12-07T03:03:24;99777.13;;;6.04;100.00
28027;BME280;15344;52.342;-1.290;2023-12-07T03:05:49;99771.42;;;5.91;100.00
28027;BME280;15344;52.342;-1.290;2023-12-07T03:08:15;99775.30;;;6.92;100.00
28027;BME280;15344;52.342;-1.290;2023-12-07T03:10:40;99775.20;;;6.60;100.00
28027;BME280;15344;52.342;-1.290;2023-12-07T03:13:06;99768.39;;;6.30;100.00
28027;BME280;15344;52.342;-1.290;2023-12-07T03:15:31;99764.55;;;6.84;100.00
28027;BME280;15344;52.342;-1.290;2023-12-07T03:17:57;99761.27;;;6.05;100.00
28027;BME280;15344;52.342;-1.290;2023-12-07T03:20:23;99756.66;;;6.39;100.00
28027;BME280;15344;52.342;-1.290;2023-12-07T03:22:48;99749.13;;;6.59;100.00
28027;BME280;15344;52.342;-1.290;2023-12-07T03:25:14;99741.43;;;7.15;100.00
28027;BME280;15344;52.342;-1.290;2023-12-07T03:27:39;99729.82;;;6.49;100.00
28027;BME280;15344;52.342;-1.290;2023-12-07T03:30:06;99720.37;;;7.08;100.00
28027;BME280;15344;52.342;-1.290;2023-12-07T03:32:31;99713.97;;;7.22;100.00
28027;BME280;15344;52.342;-1.290;2023-12-07T03:34:56;99719.56;;;7.35;100.00
28027;BME280;15344;52.342;-1.290;2023-12-07T03:37:21;99713.29;;;7.01;100.00
28027;BME280;15344;52.342;-1.290;2023-12-07T03:39:47;99714.72;;;7.18;100.00
28027;BME280;15344;52.342;-1.290;2023-12-07T03:42:13;99717.50;;;7.40;100.00
28027;BME280;15344;52.342;-1.290;2023-12-07T03:44:39;99720.83;;;7.27;100.00
28027;BME280;15344;52.342;-1.290;2023-12-07T03:47:04;99711.40;;;7.33;100.00
28027;BME280;15344;52.342;-1.290;2023-12-07T03:49:30;99712.56;;;7.35;100.00
28027;BME280;15344;52.342;-1.290;2023-12-07T03:51:55;99709.80;;;6.52;100.00
28027;BME280;15344;52.342;-1.290;2023-12-07T03:54:21;99703.09;;;6.97;100.00
28027;BME280;15344;52.342;-1.290;2023-12-07T03:56:46;99701.56;;;6.53;100.00
28027;BME280;15344;52.342;-1.290;2023-12-07T03:59:12;99698.04;;;6.80;100.00
28027;BME280;15344;52.342;-1.290;2023-12-07T04:01:37;99687.29;;;6.98;100.00
28027;BME280;15344;52.342;-1.290;2023-12-07T04:04:03;99688.02;;;6.68;100.00
28027;BME280;15344;52.342;-1.290;2023-12-07T04:06:29;99685.27;;;7.30;100.00
28027;BME280;15344;52.342;-1.290;2023-12-07T04:08:54;99683.41;;;7.44;100.00
28027;BME280;15344;52.342;-1.290;2023-12-07T04:11:20;99678.17;;;7.40;100.00
28027;BME280;15344;52.342;-1.290;2023-12-07T04:13:46;99670.90;;;6.78;100.00
28027;BME280;15344;52.342;-1.290;2023-12-07T04:16:11;99668.08;;;7.04;100.00
28027;BME280;15344;52.342;-1.290;2023-12-07T04:18:35;99658.69;;;6.75;100.00
28027;BME280;15344;52.342;-1.290;2023-12-07T04:21:01;99653.71;;;7.37;100.00
28027;BME280;15344;52.342;-1.290;2023-12-07T04:23:26;99651.61;;;7.15;100.00
28027;BME280;15344;52.342;-1.290;2023-12-07T04:25:51;99649.91;;;6.18;100.00
28027;BME280;15344;52.342;-1.290;2023-12-07T04:28:17;99645.77;;;6.07;100.00
28027;BME280;15344;52.342;-1.290;2023-12-07T04:30:42;99634.65;;;6.75;100.00
28027;BME280;15344;52.342;-1.290;2023-12-07T04:33:08;99635.72;;;6.36;100.00
28027;BME280;15344;52.342;-1.290;2023-12-07T04:35:34;99632.12;;;7.08;100.00
28027;BME280;15344;52.342;-1.290;2023-12-07T04:37:59;99625.61;;;6.94;100.00
28027;BME280;15344;52.342;-1.290;2023-12-07T04:40:25;99620.08;;;6.92;100.00
28027;BME280;15344;52.342;-1.290;2023-12-07T04:42:50;99625.27;;;6.40;100.00
28027;BME280;15344;52.342;-1.290;2023-12-07T04:45:16;99618.62;;;7.16;100.00
28027;BME280;15344;52.342;-1.290;2023-12-07T04:47:41;99617.11;;;6.67;100.00
28027;BME280;15344;52.342;-1.290;2023-12-07T04:50:07;99610.97;;;6.16;100.00
28027;BME280;15344;52.342;-1.290;2023-12-07T04:52:32;99612.16;;;6.59;100.00
28027;BME280;15344;52.342;-1.290;2023-12-07T04:54:58;99605.63;;;6.37;100.00
28027;BME280;15344;52.342;-1.290;2023-12-07T04:57:23;99600.91;;;6.08;100.00
28027;BME280;15344;52.342;-1.290;2023-12-07T04:59:48;99598.29;;;6.27;100.00
28027;BME280;15344;52.342;-1.290;2023-12-07T05:02:15;99591.31;;;6.24;100.00
28027;BME280;15344;52.342;-1.290;2023-12-07T05:04:39;99595.45;;;6.51;100.00
28027;BME280;15344;52.342;-1.290;2023-12-07T05:07:05;99594.22;;;6.48;100.00
28027;BME280;15344;52.342;-1.290;2023-12-07T05:09:30;99588.84;;;6.50;100.00
28027;BME280;15344;52.342;-1.290;2023-12-07T05:11:55;99582.65;;;6.46;100.00
28027;BME280;15344;52.342;-1.290;2023-12-07T05:14:21;99582.64;;;5.77;100.00
28027;BME280;15344;52.342;-1.290;2023-12-07T05:16:47;99566.04;;;6.61;100.00
28027;BME280;15344;52.342;-1.290;2023-12-07T05:19:12;99564.15;;;6.47;100.00
28027;BME280;15344;52.342;-1.290;2023-12-07T05:21:38;99573.75;;;6.55;100.00
28027;BME280;15344;52.342;-1.290;2023-12-07T05:24:03;99584.63;;;6.20;100.00
28027;BME280;15344;52.342;-1.290;2023-12-07T05:26:28;99577.79;;;6.07;100.00
28027;BME280;15344;52.342;-1.290;2023-12-07T05:28:54;99578.85;;;5.58;100.00
28027;BME280;15344;52.342;-1.290;2023-12-07T05:31:20;99583.61;;;6.01;100.00
28027;BME280;15344;52.342;-1.290;2023-12-07T05:33:45;99581.54;;;6.46;100.00
28027;BME280;15344;52.342;-1.290;2023-12-07T05:36:10;99585.41;;;6.64;100.00
28027;BME280;15344;52.342;-1.290;2023-12-07T05:38:35;99584.57;;;6.94;100.00
28027;BME280;15344;52.342;-1.290;2023-12-07T05:41:00;99582.91;;;6.75;100.00
28027;BME280;15344;52.342;-1.290;2023-12-07T05:43:26;99587.00;;;6.87;100.00
28027;BME280;15344;52.342;-1.290;2023-12-07T05:45:52;99582.99;;;6.80;100.00
28027;BME280;15344;52.342;-1.290;2023-12-07T05:48:17;99583.72;;;6.51;100.00
28027;BME280;15344;52.342;-1.290;2023-12-07T05:50:43;99581.16;;;6.60;100.00
28027;BME280;15344;52.342;-1.290;2023-12-07T05:53:09;99569.52;;;6.46;100.00
28027;BME280;15344;52.342;-1.290;2023-12-07T05:55:34;99567.41;;;6.59;100.00
28027;BME280;15344;52.342;-1.290;2023-12-07T05:58:00;99557.03;;;6.58;100.00
28027;BME280;15344;52.342;-1.290;2023-12-07T06:00:26;99551.19;;;6.68;100.00
28027;BME280;15344;52.342;-1.290;2023-12-07T06:02:51;99546.47;;;6.51;100.00
28027;BME280;15344;52.342;-1.290;2023-12-07T06:05:16;99545.35;;;7.40;100.00
28027;BME280;15344;52.342;-1.290;2023-12-07T06:07:42;99536.71;;;7.02;100.00
28027;BME280;15344;52.342;-1.290;2023-12-07T06:10:08;99536.14;;;6.89;100.00
28027;BME280;15344;52.342;-1.290;2023-12-07T06:12:33;99525.11;;;6.89;100.00
28027;BME280;15344;52.342;-1.290;2023-12-07T06:14:58;99518.79;;;7.08;100.00
28027;BME280;15344;52.342;-1.290;2023-12-07T06:17:24;99516.76;;;6.38;100.00
28027;BME280;15344;52.342;-1.290;2023-12-07T06:19:49;99512.84;;;6.52;100.00
28027;BME280;15344;52.342;-1.290;2023-12-07T06:22:15;99511.07;;;6.90;100.00
28027;BME280;15344;52.342;-1.290;2023-12-07T06:24:40;99506.66;;;6.91;100.00
28027;BME280;15344;52.342;-1.290;2023-12-07T06:27:06;99503.91;;;5.95;100.00
28027;BME280;15344;52.342;-1.290;2023-12-07T06:29:31;99496.72;;;6.93;100.00
28027;BME280;15344;52.342;-1.290;2023-12-07T06:31:57;99492.39;;;7.24;100.00
28027;BME280;15344;52.342;-1.290;2023-12-07T06:34:22;99491.07;;;6.85;100.00
28027;BME280;15344;52.342;-1.290;2023-12-07T06:36:48;99489.56;;;6.55;100.00
28027;BME280;15344;52.342;-1.290;2023-12-07T06:39:13;99486.62;;;7.01;100.00
28027;BME280;15344;52.342;-1.290;2023-12-07T06:41:39;99484.38;;;6.51;100.00
28027;BME280;15344;52.342;-1.290;2023-12-07T06:44:04;99477.49;;;6.54;100.00
28027;BME280;15344;52.342;-1.290;2023-12-07T06:46:29;99481.38;;;6.28;100.00
28027;BME280;15344;52.342;-1.290;2023-12-07T06:48:55;99484.28;;;6.57;100.00
28027;BME280;15344;52.342;-1.290;2023-12-07T06:51:20;99478.88;;;6.53;100.00
28027;BME280;15344;52.342;-1.290;2023-12-07T06:53:46;99470.10;;;6.39;100.00
28027;BME280;15344;52.342;-1.290;2023-12-07T06:56:11;99477.21;;;6.91;100.00
28027;BME280;15344;52.342;-1.290;2023-12-07T06:58:36;99480.15;;;6.43;100.00
28027;BME280;15344;52.342;-1.290;2023-12-07T07:01:02;99479.17;;;7.04;100.00
28027;BME280;15344;52.342;-1.290;2023-12-07T07:03:27;99473.78;;;6.96;100.00
28027;BME280;15344;52.342;-1.290;2023-12-07T07:05:53;99470.95;;;6.79;100.00
28027;BME280;15344;52.342;-1.290;2023-12-07T07:08:19;99467.36;;;7.15;100.00
28027;BME280;15344;52.342;-1.290;2023-12-07T07:10:44;99461.71;;;7.32;100.00
28027;BME280;15344;52.342;-1.290;2023-12-07T07:13:09;99456.63;;;7.11;100.00
28027;BME280;15344;52.342;-1.290;2023-12-07T07:15:35;99450.37;;;6.75;100.00
28027;BME280;15344;52.342;-1.290;2023-12-07T07:18:01;99451.74;;;6.74;100.00
28027;BME280;15344;52.342;-1.290;2023-12-07T07:20:26;99437.51;;;6.65;100.00
28027;BME280;15344;52.342;-1.290;2023-12-07T07:22:51;99431.56;;;6.53;100.00
28027;BME280;15344;52.342;-1.290;2023-12-07T07:25:16;99423.43;;;6.56;100.00
28027;BME280;15344;52.342;-1.290;2023-12-07T07:27:41;99413.24;;;6.98;100.00
28027;BME280;15344;52.342;-1.290;2023-12-07T07:30:07;99419.74;;;6.15;100.00
28027;BME280;15344;52.342;-1.290;2023-12-07T07:32:32;99413.98;;;6.32;100.00
28027;BME280;15344;52.342;-1.290;2023-12-07T07:34:57;99410.96;;;6.22;100.00
28027;BME280;15344;52.342;-1.290;2023-12-07T07:37:22;99415.76;;;6.52;100.00
28027;BME280;15344;52.342;-1.290;2023-12-07T07:39:48;99412.38;;;7.37;100.00
28027;BME280;15344;52.342;-1.290;2023-12-07T07:42:14;99406.14;;;7.29;100.00
28027;BME280;15344;52.342;-1.290;2023-12-07T07:44:39;99411.58;;;6.86;100.00
28027;BME280;15344;52.342;-1.290;2023-12-07T07:47:04;99413.06;;;6.84;100.00
28027;BME280;15344;52.342;-1.290;2023-12-07T07:49:29;99413.66;;;6.22;100.00
28027;BME280;15344;52.342;-1.290;2023-12-07T07:51:55;99421.97;;;6.69;100.00
28027;BME280;15344;52.342;-1.290;2023-12-07T07:54:20;99406.85;;;6.37;100.00
28027;BME280;15344;52.342;-1.290;2023-12-07T07:56:46;99403.88;;;6.78;100.00
28027;BME280;15344;52.342;-1.290;2023-12-07T07:59:11;99411.42;;;6.24;100.00
28027;BME280;15344;52.342;-1.290;2023-12-07T08:01:36;99410.61;;;6.77;100.00
28027;BME280;15344;52.342;-1.290;2023-12-07T08:04:01;99413.38;;;7.20;100.00
28027;BME280;15344;52.342;-1.290;2023-12-07T08:06:27;99408.13;;;6.64;100.00
28027;BME280;15344;52.342;-1.290;2023-12-07T08:08:52;99406.70;;;6.86;100.00
28027;BME280;15344;52.342;-1.290;2023-12-07T08:11:18;99408.56;;;6.23;100.00
28027;BME280;15344;52.342;-1.290;2023-12-07T08:13:43;99404.06;;;6.63;100.00
28027;BME280;15344;52.342;-1.290;2023-12-07T08:16:08;99398.16;;;6.91;100.00
28027;BME280;15344;52.342;-1.290;2023-12-07T08:18:33;99390.09;;;7.33;100.00
28027;BME280;15344;52.342;-1.290;2023-12-07T08:20:59;99387.70;;;6.86;100.00
28027;BME280;15344;52.342;-1.290;2023-12-07T08:23:25;99387.76;;;7.21;100.00
28027;BME280;15344;52.342;-1.290;2023-12-07T08:25:50;99389.22;;;7.24;100.00
28027;BME280;15344;52.342;-1.290;2023-12-07T08:28:15;99380.08;;;6.42;100.00
28027;BME280;15344;52.342;-1.290;2023-12-07T08:30:40;99375.17;;;7.22;100.00
28027;BME280;15344;52.342;-1.290;2023-12-07T08:33:06;99372.09;;;7.16;100.00
28027;BME280;15344;52.342;-1.290;2023-12-07T08:35:31;99375.24;;;7.34;100.00
28027;BME280;15344;52.342;-1.290;2023-12-07T08:37:56;99365.29;;;6.93;100.00
28027;BME280;15344;52.342;-1.290;2023-12-07T08:40:22;99365.70;;;7.07;100.00
28027;BME280;15344;52.342;-1.290;2023-12-07T08:42:47;99364.31;;;6.58;100.00
28027;BME280;15344;52.342;-1.290;2023-12-07T08:45:13;99356.13;;;6.76;100.00
28027;BME280;15344;52.342;-1.290;2023-12-07T08:47:38;99348.04;;;6.96;100.00
28027;BME280;15344;52.342;-1.290;2023-12-07T08:50:04;99347.93;;;7.73;100.00
28027;BME280;15344;52.342;-1.290;2023-12-07T08:52:29;99345.91;;;7.68;100.00
28027;BME280;15344;52.342;-1.290;2023-12-07T08:54:54;99338.17;;;7.14;100.00
28027;BME280;15344;52.342;-1.290;2023-12-07T08:57:20;99334.31;;;7.50;100.00
28027;BME280;15344;52.342;-1.290;2023-12-07T08:59:45;99327.66;;;7.20;100.00
28027;BME280;15344;52.342;-1.290;2023-12-07T09:02:10;99321.29;;;7.57;100.00
28027;BME280;15344;52.342;-1.290;2023-12-07T09:04:36;99318.55;;;7.52;100.00
28027;BME280;15344;52.342;-1.290;2023-12-07T09:07:01;99312.07;;;6.74;100.00
28027;BME280;15344;52.342;-1.290;2023-12-07T09:09:26;99317.75;;;6.53;100.00
28027;BME280;15344;52.342;-1.290;2023-12-07T09:11:51;99308.08;;;7.13;100.00
28027;BME280;15344;52.342;-1.290;2023-12-07T09:14:17;99309.89;;;7.24;100.00
28027;BME280;15344;52.342;-1.290;2023-12-07T09:16:43;99310.29;;;6.72;100.00
28027;BME280;15344;52.342;-1.290;2023-12-07T09:19:08;99312.32;;;7.22;100.00
28027;BME280;15344;52.342;-1.290;2023-12-07T09:21:33;99309.43;;;6.90;100.00
28027;BME280;15344;52.342;-1.290;2023-12-07T09:23:58;99306.96;;;7.69;100.00
28027;BME280;15344;52.342;-1.290;2023-12-07T09:26:24;99299.74;;;6.96;100.00
28027;BME280;15344;52.342;-1.290;2023-12-07T09:28:49;99295.51;;;6.89;100.00
28027;BME280;15344;52.342;-1.290;2023-12-07T09:31:15;99296.58;;;7.36;100.00
28027;BME280;15344;52.342;-1.290;2023-12-07T09:33:41;99292.95;;;7.19;100.00
28027;BME280;15344;52.342;-1.290;2023-12-07T09:36:06;99286.60;;;7.45;100.00
28027;BME280;15344;52.342;-1.290;2023-12-07T09:38:31;99276.96;;;7.11;100.00
28027;BME280;15344;52.342;-1.290;2023-12-07T09:40:57;99282.05;;;7.48;100.00
28027;BME280;15344;52.342;-1.290;2023-12-07T09:43:22;99282.69;;;7.49;100.00
28027;BME280;15344;52.342;-1.290;2023-12-07T09:45:48;99280.86;;;7.07;100.00
28027;BME280;15344;52.342;-1.290;2023-12-07T09:48:12;99281.14;;;7.70;100.00
28027;BME280;15344;52.342;-1.290;2023-12-07T09:50:38;99280.37;;;7.87;100.00
28027;BME280;15344;52.342;-1.290;2023-12-07T09:53:04;99278.26;;;7.50;100.00
28027;BME280;15344;52.342;-1.290;2023-12-07T09:55:29;99273.35;;;7.55;100.00
28027;BME280;15344;52.342;-1.290;2023-12-07T09:57:54;99267.27;;;6.92;100.00
28027;BME280;15344;52.342;-1.290;2023-12-07T10:00:20;99263.38;;;7.19;100.00
28027;BME280;15344;52.342;-1.290;2023-12-07T10:02:45;99261.06;;;6.48;100.00
28027;BME280;15344;52.342;-1.290;2023-12-07T10:05:12;99257.67;;;7.79;100.00
28027;BME280;15344;52.342;-1.290;2023-12-07T10:07:39;99251.19;;;6.83;100.00
28027;BME280;15344;52.342;-1.290;2023-12-07T10:10:01;99244.85;;;7.49;100.00
28027;BME280;15344;52.342;-1.290;2023-12-07T10:12:27;99238.52;;;6.75;100.00
28027;BME280;15344;52.342;-1.290;2023-12-07T10:14:52;99237.14;;;6.77;100.00
28027;BME280;15344;52.342;-1.290;2023-12-07T10:17:18;99236.57;;;7.46;100.00
28027;BME280;15344;52.342;-1.290;2023-12-07T10:19:43;99234.74;;;7.56;100.00
28027;BME280;15344;52.342;-1.290;2023-12-07T10:22:13;99225.18;;;8.28;100.00
28027;BME280;15344;52.342;-1.290;2023-12-07T10:24:35;99230.77;;;7.03;100.00
28027;BME280;15344;52.342;-1.290;2023-12-07T10:27:00;99225.46;;;7.30;100.00
28027;BME280;15344;52.342;-1.290;2023-12-07T10:29:28;99215.18;;;7.67;100.00
28027;BME280;15344;52.342;-1.290;2023-12-07T10:31:51;99213.01;;;7.31;100.00
28027;BME280;15344;52.342;-1.290;2023-12-07T10:34:18;99202.42;;;7.21;100.00
28027;BME280;15344;52.342;-1.290;2023-12-07T10:36:42;99196.79;;;7.76;100.00
28027;BME280;15344;52.342;-1.290;2023-12-07T10:39:07;99191.04;;;8.25;100.00
28027;BME280;15344;52.342;-1.290;2023-12-07T10:41:34;99201.45;;;7.68;100.00
28027;BME280;15344;52.342;-1.290;2023-12-07T10:44:00;99207.35;;;7.53;100.00
28027;BME280;15344;52.342;-1.290;2023-12-07T10:46:24;99202.28;;;7.70;100.00
28027;BME280;15344;52.342;-1.290;2023-12-07T10:48:53;99192.61;;;8.03;100.00
28027;BME280;15344;52.342;-1.290;2023-12-07T10:51:20;99193.20;;;8.20;100.00
28027;BME280;15344;52.342;-1.290;2023-12-07T10:53:41;99185.33;;;8.02;100.00
28027;BME280;15344;52.342;-1.290;2023-12-07T10:56:10;99181.84;;;7.88;100.00
28027;BME280;15344;52.342;-1.290;2023-12-07T10:58:33;99176.15;;;7.88;100.00
28027;BME280;15344;52.342;-1.290;2023-12-07T11:00:57;99181.44;;;7.47;100.00
28027;BME280;15344;52.342;-1.290;2023-12-07T11:03:22;99180.38;;;7.29;100.00
28027;BME280;15344;52.342;-1.290;2023-12-07T11:05:47;99172.39;;;7.21;100.00
28027;BME280;15344;52.342;-1.290;2023-12-07T11:08:17;99169.73;;;7.74;100.00
28027;BME280;15344;52.342;-1.290;2023-12-07T11:10:45;99167.94;;;7.58;100.00
28027;BME280;15344;52.342;-1.290;2023-12-07T11:13:13;99167.96;;;7.97;100.00
28027;BME280;15344;52.342;-1.290;2023-12-07T11:15:28;99160.18;;;7.93;100.00
28027;BME280;15344;52.342;-1.290;2023-12-07T11:17:55;99154.62;;;7.85;100.00
28027;BME280;15344;52.342;-1.290;2023-12-07T11:20:21;99159.67;;;7.62;100.00
28027;BME280;15344;52.342;-1.290;2023-12-07T11:22:44;99158.02;;;7.61;100.00
28027;BME280;15344;52.342;-1.290;2023-12-07T11:25:10;99151.61;;;8.46;100.00
28027;BME280;15344;52.342;-1.290;2023-12-07T11:27:35;99135.20;;;8.06;100.00
28027;BME280;15344;52.342;-1.290;2023-12-07T11:30:03;99141.60;;;7.37;100.00
28027;BME280;15344;52.342;-1.290;2023-12-07T11:32:27;99136.67;;;7.60;100.00
28027;BME280;15344;52.342;-1.290;2023-12-07T11:34:52;99134.78;;;7.21;100.00
28027;BME280;15344;52.342;-1.290;2023-12-07T11:37:17;99112.71;;;7.52;100.00
28027;BME280;15344;52.342;-1.290;2023-12-07T11:39:43;99113.23;;;7.98;100.00
28027;BME280;15344;52.342;-1.290;2023-12-07T11:42:11;99111.34;;;7.98;100.00
28027;BME280;15344;52.342;-1.290;2023-12-07T11:44:34;99114.89;;;7.25;100.00
28027;BME280;15344;52.342;-1.290;2023-12-07T11:46:59;99102.21;;;7.46;100.00
28027;BME280;15344;52.342;-1.290;2023-12-07T11:49:25;99092.40;;;7.69;100.00
28027;BME280;15344;52.342;-1.290;2023-12-07T11:51:50;99087.31;;;8.48;100.00
28027;BME280;15344;52.342;-1.290;2023-12-07T11:54:15;99084.56;;;7.92;100.00
28027;BME280;15344;52.342;-1.290;2023-12-07T11:56:41;99071.82;;;8.32;100.00
28027;BME280;15344;52.342;-1.290;2023-12-07T11:59:06;99070.56;;;7.85;100.00
28027;BME280;15344;52.342;-1.290;2023-12-07T12:01:32;99065.86;;;7.35;100.00
28027;BME280;15344;52.342;-1.290;2023-12-07T12:03:57;99065.43;;;7.28;100.00
28027;BME280;15344;52.342;-1.290;2023-12-07T12:06:24;99056.92;;;7.14;100.00
28027;BME280;15344;52.342;-1.290;2023-12-07T12:08:48;99049.97;;;7.31;100.00
28027;BME280;15344;52.342;-1.290;2023-12-07T12:11:14;99045.36;;;7.80;100.00
28027;BME280;15344;52.342;-1.290;2023-12-07T12:13:41;99031.09;;;7.62;100.00
28027;BME280;15344;52.342;-1.290;2023-12-07T12:16:06;99029.42;;;7.61;100.00
28027;BME280;15344;52.342;-1.290;2023-12-07T12:18:31;99027.46;;;7.23;100.00
28027;BME280;15344;52.342;-1.290;2023-12-07T12:20:56;99011.76;;;7.21;100.00
28027;BME280;15344;52.342;-1.290;2023-12-07T12:23:23;99008.04;;;7.42;100.00
28027;BME280;15344;52.342;-1.290;2023-12-07T12:25:47;99007.16;;;8.30;100.00
28027;BME280;15344;52.342;-1.290;2023-12-07T12:28:16;98994.32;;;7.21;100.00
28027;BME280;15344;52.342;-1.290;2023-12-07T12:30:38;98986.18;;;7.47;100.00
28027;BME280;15344;52.342;-1.290;2023-12-07T12:33:04;98991.55;;;7.94;100.00
28027;BME280;15344;52.342;-1.290;2023-12-07T12:35:29;98979.25;;;7.40;100.00
28027;BME280;15344;52.342;-1.290;2023-12-07T12:37:55;98976.69;;;6.73;100.00
28027;BME280;15344;52.342;-1.290;2023-12-07T12:40:22;98976.35;;;7.54;100.00